1918 NOT_NAMED (1918203N16146)


IBTrACS version v04r00. Visit IBTrACS website for data access.
Please direct all questions to the IBTrACS Q and A forum

Storm track - Intensity - Wind Radii - Intensity Data - Source Data - All data

Summary Information

Storm ID 1918203N16146
Start Jul 21 22Z
End Jul 25 22Z
ATCF IDs
Track status Best track data.

Storm track plot

Map of storm track

Intensity plots

No Intensity information for this storm


Radial wind information

No radial wind information for this storm


Position and Intensity Table

BASIN ISO_TIME_________ NATURE LAT LON
degrees north degrees east
WP 1918-07-21 22:00:00 NR 16.10 145.80
WP 1918-07-22 00:00:00 NR 16.38 145.60
WP 03:00:00 NR 16.80 145.31
WP 06:00:00 NR 17.23 145.03
WP 09:00:00 NR 17.66 144.78
WP 10:00:00 NR 17.80 144.70
WP 12:00:00 NR 18.09 144.56
WP 15:00:00 NR 18.54 144.38
WP 18:00:00 NR 18.99 144.21
WP 21:00:00 NR 19.45 144.05
WP 22:00:00 NR 19.60 144.00
WP 1918-07-23 00:00:00 NR 19.90 143.90
WP 03:00:00 NR 20.36 143.75
WP 06:00:00 NR 20.84 143.59
WP 09:00:00 NR 21.33 143.38
WP 10:00:00 NR 21.50 143.30
WP 12:00:00 NR 21.88 143.16
WP 15:00:00 NR 22.46 142.91
WP 18:00:00 NR 23.03 142.57
WP 21:00:00 NR 23.55 142.10
WP 22:00:00 NR 23.70 141.90
WP 1918-07-24 00:00:00 NR 23.95 141.45
WP 03:00:00 NR 24.25 140.63
WP 06:00:00 NR 24.49 139.71
WP 09:00:00 NR 24.72 138.73
WP 10:00:00 NR 24.80 138.40
WP 12:00:00 NR 24.99 137.72
WP 15:00:00 NR 25.28 136.66
WP 18:00:00 NR 25.55 135.65
WP 21:00:00 NR 25.82 134.76
WP 22:00:00 NR 25.90 134.50
WP 1918-07-25 00:00:00 NR 26.05 134.08
WP 03:00:00 NR 26.25 133.59
WP 06:00:00 NR 26.47 133.22
WP 09:00:00 NR 26.71 132.90
WP 10:00:00 NR 26.80 132.80
WP 12:00:00 NR 27.00 132.59
WP 15:00:00 NR 27.33 132.25
WP 18:00:00 NR 27.69 131.89
WP 21:00:00 NR 28.07 131.52
WP 22:00:00 NR 28.20 131.40

Source Information

Agency Information
USA
TOKYO
CMA
HKO
NEWDELHI
REUNION
BOM
NADI
WELLINGTON
DS824
TD9636 cons_worldwide_trop_cyclone_18710101-19891231-003:Line=5725
TD9635
NEUMANN
MLC

All available IBTrACS Data

SEASON BASIN SUBBASIN ISO_TIME_________ NATURE LAT LON DIST2LAND LANDFALL IFLAG USA SSHS TD9636 LAT TD9636 LON TD9636 STAGE STORM SPEED STORM DIR
Year degrees north degrees east km km 1 degrees north degrees east kts degrees
1918 WP MM 1918-07-21 22:00:00 NR 16.10 145.80 2040 2040 __________O___ -1 16.10 145.80 4 10 325
1918 WP MM 1918-07-22 00:00:00 NR 16.38 145.60 2075 2075 __________P___ -1 16.38 145.60 4 10 326
1918 WP MM 03:00:00 NR 16.80 145.31 2083 2029 __________P___ -1 16.80 145.31 4 10 327
1918 WP MM 06:00:00 NR 17.23 145.03 2029 1969 __________P___ -1 17.23 145.03 4 10 329
1918 WP MM 09:00:00 NR 17.66 144.78 1969 1955 __________P___ -1 17.66 144.78 4 10 332
1918 WP MM 10:00:00 NR 17.80 144.70 1955 1920 __________O___ -1 17.80 144.70 4 10 335
1918 WP MM 12:00:00 NR 18.09 144.56 1920 1870 __________P___ -1 18.09 144.56 4 10 337
1918 WP MM 15:00:00 NR 18.54 144.38 1870 1811 __________P___ -1 18.54 144.38 4 10 340
1918 WP MM 18:00:00 NR 18.99 144.21 1811 1766 __________P___ -1 18.99 144.21 4 10 342
1918 WP MM 21:00:00 NR 19.45 144.05 1766 1741 __________P___ -1 19.45 144.05 4 10 342
1918 WP MM 22:00:00 NR 19.60 144.00 1741 1707 __________O___ -1 19.60 144.00 4 10 343
1918 WP MM 1918-07-23 00:00:00 NR 19.90 143.90 1707 1652 __________P___ -1 19.90 143.90 4 10 343
1918 WP MM 03:00:00 NR 20.36 143.75 1652 1603 __________P___ -1 20.36 143.75 4 10 342
1918 WP MM 06:00:00 NR 20.84 143.59 1603 1543 __________P___ -1 20.84 143.59 4 10 340
1918 WP MM 09:00:00 NR 21.33 143.38 1543 1519 __________P___ -1 21.33 143.38 4 11 338
1918 WP MM 10:00:00 NR 21.50 143.30 1519 1474 __________O___ -1 21.50 143.30 4 12 339
1918 WP MM 12:00:00 NR 21.88 143.16 1474 1401 __________P___ -1 21.88 143.16 4 12 339
1918 WP MM 15:00:00 NR 22.46 142.91 1401 1337 __________P___ -1 22.46 142.91 4 13 335
1918 WP MM 18:00:00 NR 23.03 142.57 1337 1264 __________P___ -1 23.03 142.57 4 13 325
1918 WP MM 21:00:00 NR 23.55 142.10 1264 1234 __________P___ -1 23.55 142.10 4 14 317
1918 WP MM 22:00:00 NR 23.70 141.90 1234 1192 __________O___ -1 23.70 141.90 4 14 304
1918 WP MM 1918-07-24 00:00:00 NR 23.95 141.45 1192 1127 __________P___ -1 23.95 141.45 4 15 295
1918 WP MM 03:00:00 NR 24.25 140.63 1127 1063 __________P___ -1 24.25 140.63 4 17 289
1918 WP MM 06:00:00 NR 24.49 139.71 1063 1010 __________P___ -1 24.49 139.71 4 18 285
1918 WP MM 09:00:00 NR 24.72 138.73 1010 994 __________P___ -1 24.72 138.73 4 18 284
1918 WP MM 10:00:00 NR 24.80 138.40 992 943 __________O___ -1 24.80 138.40 4 19 286
1918 WP MM 12:00:00 NR 24.99 137.72 943 855 __________P___ -1 24.99 137.72 4 20 287
1918 WP MM 15:00:00 NR 25.28 136.66 855 766 __________P___ -1 25.28 136.66 4 20 287
1918 WP MM 18:00:00 NR 25.55 135.65 766 705 __________P___ -1 25.55 135.65 4 18 287
1918 WP MM 21:00:00 NR 25.82 134.76 705 679 __________P___ -1 25.82 134.76 4 16 289
1918 WP MM 22:00:00 NR 25.90 134.50 679 649 __________O___ -1 25.90 134.50 4 13 291
1918 WP MM 1918-07-25 00:00:00 NR 26.05 134.08 649 595 __________P___ -1 26.05 134.08 4 11 293
1918 WP MM 03:00:00 NR 26.25 133.59 595 558 __________P___ -1 26.25 133.59 4 9 299
1918 WP MM 06:00:00 NR 26.47 133.22 558 525 __________P___ -1 26.47 133.22 4 8 307
1918 WP MM 09:00:00 NR 26.71 132.90 525 511 __________P___ -1 26.71 132.90 4 8 312
1918 WP MM 10:00:00 NR 26.80 132.80 511 483 __________O___ -1 26.80 132.80 4 8 315
1918 WP MM 12:00:00 NR 27.00 132.59 483 437 __________P___ -1 27.00 132.59 4 9 317
1918 WP MM 15:00:00 NR 27.33 132.25 437 386 __________P___ -1 27.33 132.25 4 9 318
1918 WP MM 18:00:00 NR 27.69 131.89 386 332 __________P___ -1 27.69 131.89 4 10 319
1918 WP MM 21:00:00 NR 28.07 131.52 332 319 __________P___ -1 28.07 131.52 4 10 320
1918 WP MM 22:00:00 NR 28.20 131.40 319 __________O___ -1 28.20 131.40 4 10 320